sensor_id;sensor_type;location;lat;lon;timestamp;P1;durP1;ratioP1;P2;durP2;ratioP2
16593;SDS011;8410;52.532;13.336;2024-02-23T00:00:03;26.77;;;23.87;;
16593;SDS011;8410;52.532;13.336;2024-02-23T00:02:31;17.63;;;15.63;;
16593;SDS011;8410;52.532;13.336;2024-02-23T00:04:59;9.37;;;8.37;;
16593;SDS011;8410;52.532;13.336;2024-02-23T00:07:27;8.50;;;7.60;;
16593;SDS011;8410;52.532;13.336;2024-02-23T00:09:54;8.40;;;7.47;;
16593;SDS011;8410;52.532;13.336;2024-02-23T00:12:22;12.07;;;10.13;;
16593;SDS011;8410;52.532;13.336;2024-02-23T00:14:49;7.23;;;5.77;;
16593;SDS011;8410;52.532;13.336;2024-02-23T00:17:18;8.10;;;7.17;;
16593;SDS011;8410;52.532;13.336;2024-02-23T00:19:46;4.97;;;4.20;;
16593;SDS011;8410;52.532;13.336;2024-02-23T00:22:15;5.73;;;4.87;;
16593;SDS011;8410;52.532;13.336;2024-02-23T00:24:42;4.00;;;2.50;;
16593;SDS011;8410;52.532;13.336;2024-02-23T00:27:10;1.30;;;1.20;;
16593;SDS011;8410;52.532;13.336;2024-02-23T00:29:38;2.80;;;2.50;;
16593;SDS011;8410;52.532;13.336;2024-02-23T00:32:06;8.27;;;6.63;;
16593;SDS011;8410;52.532;13.336;2024-02-23T00:34:35;9.23;;;7.20;;
16593;SDS011;8410;52.532;13.336;2024-02-23T00:37:03;3.60;;;3.27;;
16593;SDS011;8410;52.532;13.336;2024-02-23T00:39:31;2.90;;;2.60;;
16593;SDS011;8410;52.532;13.336;2024-02-23T00:41:59;7.63;;;6.57;;
16593;SDS011;8410;52.532;13.336;2024-02-23T00:44:26;3.40;;;3.00;;
16593;SDS011;8410;52.532;13.336;2024-02-23T00:46:54;4.53;;;4.13;;
16593;SDS011;8410;52.532;13.336;2024-02-23T00:49:24;5.43;;;4.00;;
16593;SDS011;8410;52.532;13.336;2024-02-23T00:51:52;8.13;;;7.10;;
16593;SDS011;8410;52.532;13.336;2024-02-23T00:54:20;5.23;;;3.87;;
16593;SDS011;8410;52.532;13.336;2024-02-23T00:56:47;10.47;;;8.70;;
16593;SDS011;8410;52.532;13.336;2024-02-23T00:59:18;7.03;;;5.83;;
16593;SDS011;8410;52.532;13.336;2024-02-23T01:01:45;10.27;;;9.23;;
16593;SDS011;8410;52.532;13.336;2024-02-23T01:04:13;4.07;;;3.70;;
16593;SDS011;8410;52.532;13.336;2024-02-23T01:06:40;11.33;;;10.17;;
16593;SDS011;8410;52.532;13.336;2024-02-23T01:09:09;4.67;;;4.17;;
16593;SDS011;8410;52.532;13.336;2024-02-23T01:11:37;4.20;;;3.80;;
16593;SDS011;8410;52.532;13.336;2024-02-23T01:14:04;2.80;;;2.10;;
16593;SDS011;8410;52.532;13.336;2024-02-23T01:16:33;5.73;;;5.13;;
16593;SDS011;8410;52.532;13.336;2024-02-23T01:19:00;5.13;;;2.93;;
16593;SDS011;8410;52.532;13.336;2024-02-23T01:21:29;3.37;;;3.00;;
16593;SDS011;8410;52.532;13.336;2024-02-23T01:23:56;2.87;;;2.50;;
16593;SDS011;8410;52.532;13.336;2024-02-23T01:26:25;40.00;;;29.63;;
16593;SDS011;8410;52.532;13.336;2024-02-23T01:28:53;10.17;;;9.17;;
16593;SDS011;8410;52.532;13.336;2024-02-23T01:31:21;5.17;;;4.30;;
16593;SDS011;8410;52.532;13.336;2024-02-23T01:33:48;1.90;;;1.70;;
16593;SDS011;8410;52.532;13.336;2024-02-23T01:36:17;2.17;;;1.83;;
16593;SDS011;8410;52.532;13.336;2024-02-23T01:38:45;5.87;;;5.00;;
16593;SDS011;8410;52.532;13.336;2024-02-23T01:41:13;3.23;;;2.43;;
16593;SDS011;8410;52.532;13.336;2024-02-23T01:43:41;2.57;;;2.30;;
16593;SDS011;8410;52.532;13.336;2024-02-23T01:46:09;2.27;;;1.87;;
16593;SDS011;8410;52.532;13.336;2024-02-23T01:48:36;4.63;;;3.87;;
16593;SDS011;8410;52.532;13.336;2024-02-23T01:51:04;2.17;;;1.80;;
16593;SDS011;8410;52.532;13.336;2024-02-23T01:53:32;4.30;;;3.87;;
16593;SDS011;8410;52.532;13.336;2024-02-23T01:55:59;3.97;;;2.37;;
16593;SDS011;8410;52.532;13.336;2024-02-23T01:58:28;1.53;;;1.37;;
16593;SDS011;8410;52.532;13.336;2024-02-23T02:00:58;2.07;;;1.60;;
16593;SDS011;8410;52.532;13.336;2024-02-23T02:03:26;2.80;;;1.00;;
16593;SDS011;8410;52.532;13.336;2024-02-23T02:05:53;2.00;;;1.20;;
16593;SDS011;8410;52.532;13.336;2024-02-23T02:08:24;2.33;;;1.43;;
16593;SDS011;8410;52.532;13.336;2024-02-23T02:10:52;6.23;;;4.50;;
16593;SDS011;8410;52.532;13.336;2024-02-23T02:13:20;3.10;;;2.77;;
16593;SDS011;8410;52.532;13.336;2024-02-23T02:15:48;2.23;;;1.13;;
16593;SDS011;8410;52.532;13.336;2024-02-23T02:18:16;2.97;;;1.30;;
16593;SDS011;8410;52.532;13.336;2024-02-23T02:20:50;0.80;;;0.70;;
16593;SDS011;8410;52.532;13.336;2024-02-23T02:23:19;1.07;;;0.90;;
16593;SDS011;8410;52.532;13.336;2024-02-23T02:25:51;1.80;;;1.23;;
16593;SDS011;8410;52.532;13.336;2024-02-23T02:28:19;2.00;;;1.10;;
16593;SDS011;8410;52.532;13.336;2024-02-23T02:30:47;1.23;;;0.77;;
16593;SDS011;8410;52.532;13.336;2024-02-23T02:33:16;1.23;;;0.80;;
16593;SDS011;8410;52.532;13.336;2024-02-23T02:35:44;0.60;;;0.60;;
16593;SDS011;8410;52.532;13.336;2024-02-23T02:38:11;5.73;;;3.63;;
16593;SDS011;8410;52.532;13.336;2024-02-23T02:40:39;2.57;;;1.80;;
16593;SDS011;8410;52.532;13.336;2024-02-23T02:43:06;1.10;;;0.60;;
16593;SDS011;8410;52.532;13.336;2024-02-23T02:45:34;1.37;;;0.80;;
16593;SDS011;8410;52.532;13.336;2024-02-23T02:48:02;1.67;;;0.70;;
16593;SDS011;8410;52.532;13.336;2024-02-23T02:50:33;1.00;;;0.70;;
16593;SDS011;8410;52.532;13.336;2024-02-23T02:53:01;3.63;;;0.60;;
16593;SDS011;8410;52.532;13.336;2024-02-23T02:55:28;1.53;;;0.53;;
16593;SDS011;8410;52.532;13.336;2024-02-23T02:57:55;2.43;;;0.60;;
16593;SDS011;8410;52.532;13.336;2024-02-23T03:00:23;1.70;;;0.70;;
16593;SDS011;8410;52.532;13.336;2024-02-23T03:02:51;2.10;;;0.83;;
16593;SDS011;8410;52.532;13.336;2024-02-23T03:05:18;0.97;;;0.73;;
16593;SDS011;8410;52.532;13.336;2024-02-23T03:07:47;0.73;;;0.43;;
16593;SDS011;8410;52.532;13.336;2024-02-23T03:10:15;1.27;;;0.70;;
16593;SDS011;8410;52.532;13.336;2024-02-23T03:12:42;0.63;;;0.60;;
16593;SDS011;8410;52.532;13.336;2024-02-23T03:15:10;1.53;;;0.87;;
16593;SDS011;8410;52.532;13.336;2024-02-23T03:17:37;1.60;;;1.00;;
16593;SDS011;8410;52.532;13.336;2024-02-23T03:20:05;1.37;;;0.70;;
16593;SDS011;8410;52.532;13.336;2024-02-23T03:22:37;1.20;;;0.63;;
16593;SDS011;8410;52.532;13.336;2024-02-23T03:25:06;1.40;;;0.60;;
16593;SDS011;8410;52.532;13.336;2024-02-23T03:27:35;1.17;;;0.80;;
16593;SDS011;8410;52.532;13.336;2024-02-23T03:30:04;3.37;;;0.50;;
16593;SDS011;8410;52.532;13.336;2024-02-23T03:32:34;3.13;;;1.03;;
16593;SDS011;8410;52.532;13.336;2024-02-23T03:35:04;1.30;;;0.77;;
16593;SDS011;8410;52.532;13.336;2024-02-23T03:37:33;1.70;;;1.10;;
16593;SDS011;8410;52.532;13.336;2024-02-23T03:40:00;2.03;;;1.13;;
16593;SDS011;8410;52.532;13.336;2024-02-23T03:42:30;1.67;;;1.23;;
16593;SDS011;8410;52.532;13.336;2024-02-23T03:44:58;2.47;;;0.63;;
16593;SDS011;8410;52.532;13.336;2024-02-23T03:47:25;0.70;;;0.60;;
16593;SDS011;8410;52.532;13.336;2024-02-23T03:49:53;1.50;;;0.70;;
16593;SDS011;8410;52.532;13.336;2024-02-23T03:52:20;1.33;;;0.80;;
16593;SDS011;8410;52.532;13.336;2024-02-23T03:54:48;2.07;;;1.33;;
16593;SDS011;8410;52.532;13.336;2024-02-23T03:57:18;2.47;;;1.20;;
16593;SDS011;8410;52.532;13.336;2024-02-23T03:59:52;2.23;;;1.20;;
16593;SDS011;8410;52.532;13.336;2024-02-23T04:02:20;1.10;;;0.90;;
16593;SDS011;8410;52.532;13.336;2024-02-23T04:04:48;1.07;;;0.80;;
16593;SDS011;8410;52.532;13.336;2024-02-23T04:07:15;0.87;;;0.60;;
16593;SDS011;8410;52.532;13.336;2024-02-23T04:09:43;4.57;;;0.60;;
16593;SDS011;8410;52.532;13.336;2024-02-23T04:12:11;2.30;;;1.40;;
16593;SDS011;8410;52.532;13.336;2024-02-23T04:14:39;1.07;;;0.70;;
16593;SDS011;8410;52.532;13.336;2024-02-23T04:17:08;3.27;;;0.80;;
16593;SDS011;8410;52.532;13.336;2024-02-23T04:19:36;0.70;;;0.60;;
16593;SDS011;8410;52.532;13.336;2024-02-23T04:22:03;0.83;;;0.40;;
16593;SDS011;8410;52.532;13.336;2024-02-23T04:24:31;4.93;;;2.20;;
16593;SDS011;8410;52.532;13.336;2024-02-23T04:26:59;1.10;;;0.80;;
16593;SDS011;8410;52.532;13.336;2024-02-23T04:29:26;1.90;;;0.70;;
16593;SDS011;8410;52.532;13.336;2024-02-23T04:31:54;2.33;;;0.60;;
16593;SDS011;8410;52.532;13.336;2024-02-23T04:34:23;2.03;;;0.80;;
16593;SDS011;8410;52.532;13.336;2024-02-23T04:36:50;2.43;;;0.90;;
16593;SDS011;8410;52.532;13.336;2024-02-23T04:39:17;3.03;;;0.63;;
16593;SDS011;8410;52.532;13.336;2024-02-23T04:41:45;1.37;;;0.80;;
16593;SDS011;8410;52.532;13.336;2024-02-23T04:44:12;0.90;;;0.80;;
16593;SDS011;8410;52.532;13.336;2024-02-23T04:46:40;1.90;;;0.60;;
16593;SDS011;8410;52.532;13.336;2024-02-23T04:49:07;1.30;;;0.50;;
16593;SDS011;8410;52.532;13.336;2024-02-23T04:51:39;1.70;;;0.50;;
16593;SDS011;8410;52.532;13.336;2024-02-23T04:54:07;1.13;;;0.60;;
16593;SDS011;8410;52.532;13.336;2024-02-23T04:56:34;3.67;;;2.37;;
16593;SDS011;8410;52.532;13.336;2024-02-23T04:59:02;1.37;;;0.80;;
16593;SDS011;8410;52.532;13.336;2024-02-23T05:01:34;1.67;;;0.60;;
16593;SDS011;8410;52.532;13.336;2024-02-23T05:04:03;1.87;;;0.50;;
16593;SDS011;8410;52.532;13.336;2024-02-23T05:06:31;0.73;;;0.40;;
16593;SDS011;8410;52.532;13.336;2024-02-23T05:09:00;0.80;;;0.43;;
16593;SDS011;8410;52.532;13.336;2024-02-23T05:11:27;1.30;;;0.80;;
16593;SDS011;8410;52.532;13.336;2024-02-23T05:13:55;1.10;;;0.33;;
16593;SDS011;8410;52.532;13.336;2024-02-23T05:16:22;0.57;;;0.40;;
16593;SDS011;8410;52.532;13.336;2024-02-23T05:18:50;6.70;;;0.60;;
16593;SDS011;8410;52.532;13.336;2024-02-23T05:21:17;0.67;;;0.40;;
16593;SDS011;8410;52.532;13.336;2024-02-23T05:23:45;0.47;;;0.30;;
16593;SDS011;8410;52.532;13.336;2024-02-23T05:26:14;1.00;;;0.80;;
16593;SDS011;8410;52.532;13.336;2024-02-23T05:28:41;0.30;;;0.30;;
16593;SDS011;8410;52.532;13.336;2024-02-23T05:31:09;0.40;;;0.30;;
16593;SDS011;8410;52.532;13.336;2024-02-23T05:33:36;0.83;;;0.60;;
16593;SDS011;8410;52.532;13.336;2024-02-23T05:36:05;0.87;;;0.50;;
16593;SDS011;8410;52.532;13.336;2024-02-23T05:38:33;1.80;;;0.40;;
16593;SDS011;8410;52.532;13.336;2024-02-23T05:41:00;0.47;;;0.37;;
16593;SDS011;8410;52.532;13.336;2024-02-23T05:43:29;0.40;;;0.30;;
16593;SDS011;8410;52.532;13.336;2024-02-23T05:45:57;0.30;;;0.30;;
16593;SDS011;8410;52.532;13.336;2024-02-23T05:48:25;0.70;;;0.40;;
16593;SDS011;8410;52.532;13.336;2024-02-23T05:50:52;0.40;;;0.30;;
16593;SDS011;8410;52.532;13.336;2024-02-23T05:53:20;0.90;;;0.60;;
16593;SDS011;8410;52.532;13.336;2024-02-23T05:55:47;0.53;;;0.40;;
16593;SDS011;8410;52.532;13.336;2024-02-23T05:58:15;0.57;;;0.40;;
16593;SDS011;8410;52.532;13.336;2024-02-23T06:00:44;0.87;;;0.57;;
16593;SDS011;8410;52.532;13.336;2024-02-23T06:03:12;0.57;;;0.47;;
16593;SDS011;8410;52.532;13.336;2024-02-23T06:05:39;0.40;;;0.40;;
16593;SDS011;8410;52.532;13.336;2024-02-23T06:08:07;0.60;;;0.60;;
16593;SDS011;8410;52.532;13.336;2024-02-23T06:10:34;0.60;;;0.40;;
16593;SDS011;8410;52.532;13.336;2024-02-23T06:13:03;0.60;;;0.50;;
16593;SDS011;8410;52.532;13.336;2024-02-23T06:15:31;0.60;;;0.50;;
16593;SDS011;8410;52.532;13.336;2024-02-23T06:18:00;1.47;;;0.80;;
16593;SDS011;8410;52.532;13.336;2024-02-23T06:20:27;0.80;;;0.70;;
16593;SDS011;8410;52.532;13.336;2024-02-23T06:22:56;0.40;;;0.40;;
16593;SDS011;8410;52.532;13.336;2024-02-23T06:25:23;0.30;;;0.30;;
16593;SDS011;8410;52.532;13.336;2024-02-23T06:27:51;0.30;;;0.30;;
16593;SDS011;8410;52.532;13.336;2024-02-23T06:30:18;0.57;;;0.47;;
16593;SDS011;8410;52.532;13.336;2024-02-23T06:32:47;1.40;;;0.90;;
16593;SDS011;8410;52.532;13.336;2024-02-23T06:35:16;0.77;;;0.50;;
16593;SDS011;8410;52.532;13.336;2024-02-23T06:37:43;1.40;;;0.40;;
16593;SDS011;8410;52.532;13.336;2024-02-23T06:40:11;0.50;;;0.50;;
16593;SDS011;8410;52.532;13.336;2024-02-23T06:42:38;0.87;;;0.60;;
16593;SDS011;8410;52.532;13.336;2024-02-23T06:45:06;0.47;;;0.40;;
16593;SDS011;8410;52.532;13.336;2024-02-23T06:47:34;2.17;;;1.60;;
16593;SDS011;8410;52.532;13.336;2024-02-23T06:50:03;1.00;;;0.60;;
16593;SDS011;8410;52.532;13.336;2024-02-23T06:52:33;1.10;;;0.60;;
16593;SDS011;8410;52.532;13.336;2024-02-23T06:55:00;1.00;;;0.70;;
16593;SDS011;8410;52.532;13.336;2024-02-23T06:57:28;1.50;;;0.80;;
16593;SDS011;8410;52.532;13.336;2024-02-23T06:59:57;2.53;;;0.70;;
16593;SDS011;8410;52.532;13.336;2024-02-23T07:02:24;1.03;;;0.63;;
16593;SDS011;8410;52.532;13.336;2024-02-23T07:04:52;2.60;;;1.00;;
16593;SDS011;8410;52.532;13.336;2024-02-23T07:07:21;2.03;;;0.90;;
16593;SDS011;8410;52.532;13.336;2024-02-23T07:09:52;0.83;;;0.70;;
16593;SDS011;8410;52.532;13.336;2024-02-23T07:12:21;0.70;;;0.60;;
16593;SDS011;8410;52.532;13.336;2024-02-23T07:14:49;1.40;;;0.70;;
16593;SDS011;8410;52.532;13.336;2024-02-23T07:17:16;2.70;;;0.90;;
16593;SDS011;8410;52.532;13.336;2024-02-23T07:19:45;0.90;;;0.70;;
16593;SDS011;8410;52.532;13.336;2024-02-23T07:22:13;0.73;;;0.50;;
16593;SDS011;8410;52.532;13.336;2024-02-23T07:24:41;2.63;;;0.43;;
16593;SDS011;8410;52.532;13.336;2024-02-23T07:27:10;1.20;;;0.70;;
16593;SDS011;8410;52.532;13.336;2024-02-23T07:29:38;1.27;;;0.67;;
16593;SDS011;8410;52.532;13.336;2024-02-23T07:32:06;1.30;;;0.50;;
16593;SDS011;8410;52.532;13.336;2024-02-23T07:34:34;1.00;;;0.90;;
16593;SDS011;8410;52.532;13.336;2024-02-23T07:37:02;1.03;;;0.60;;
16593;SDS011;8410;52.532;13.336;2024-02-23T07:39:30;1.80;;;0.70;;
16593;SDS011;8410;52.532;13.336;2024-02-23T07:41:57;0.80;;;0.50;;
16593;SDS011;8410;52.532;13.336;2024-02-23T07:44:26;1.40;;;0.70;;
16593;SDS011;8410;52.532;13.336;2024-02-23T07:46:54;1.60;;;0.63;;
16593;SDS011;8410;52.532;13.336;2024-02-23T07:49:22;1.23;;;0.93;;
16593;SDS011;8410;52.532;13.336;2024-02-23T07:51:49;2.13;;;0.80;;
16593;SDS011;8410;52.532;13.336;2024-02-23T07:54:17;1.47;;;0.87;;
16593;SDS011;8410;52.532;13.336;2024-02-23T07:56:44;1.53;;;0.80;;
16593;SDS011;8410;52.532;13.336;2024-02-23T07:59:12;0.90;;;0.60;;
16593;SDS011;8410;52.532;13.336;2024-02-23T08:01:40;0.70;;;0.70;;
16593;SDS011;8410;52.532;13.336;2024-02-23T08:04:08;1.27;;;0.83;;
16593;SDS011;8410;52.532;13.336;2024-02-23T08:06:36;0.80;;;0.80;;
16593;SDS011;8410;52.532;13.336;2024-02-23T08:09:04;2.80;;;1.40;;
16593;SDS011;8410;52.532;13.336;2024-02-23T08:11:31;2.43;;;0.90;;
16593;SDS011;8410;52.532;13.336;2024-02-23T08:14:02;1.57;;;0.83;;
16593;SDS011;8410;52.532;13.336;2024-02-23T08:16:30;3.27;;;1.33;;
16593;SDS011;8410;52.532;13.336;2024-02-23T08:18:59;1.37;;;0.97;;
16593;SDS011;8410;52.532;13.336;2024-02-23T08:21:26;1.17;;;0.77;;
16593;SDS011;8410;52.532;13.336;2024-02-23T08:23:54;2.23;;;1.10;;
16593;SDS011;8410;52.532;13.336;2024-02-23T08:26:21;1.10;;;0.90;;
16593;SDS011;8410;52.532;13.336;2024-02-23T08:28:49;0.90;;;0.60;;
16593;SDS011;8410;52.532;13.336;2024-02-23T08:31:16;1.00;;;0.80;;
16593;SDS011;8410;52.532;13.336;2024-02-23T08:33:44;1.97;;;0.90;;
16593;SDS011;8410;52.532;13.336;2024-02-23T08:36:14;1.03;;;0.73;;
16593;SDS011;8410;52.532;13.336;2024-02-23T08:38:41;0.70;;;0.60;;
16593;SDS011;8410;52.532;13.336;2024-02-23T08:41:08;1.23;;;1.13;;
16593;SDS011;8410;52.532;13.336;2024-02-23T08:43:36;1.87;;;0.60;;
16593;SDS011;8410;52.532;13.336;2024-02-23T08:46:04;0.50;;;0.50;;
16593;SDS011;8410;52.532;13.336;2024-02-23T08:48:35;1.07;;;0.60;;
16593;SDS011;8410;52.532;13.336;2024-02-23T08:51:03;1.67;;;0.93;;
16593;SDS011;8410;52.532;13.336;2024-02-23T08:53:32;0.87;;;0.60;;
16593;SDS011;8410;52.532;13.336;2024-02-23T08:56:00;1.23;;;0.90;;
16593;SDS011;8410;52.532;13.336;2024-02-23T08:58:28;2.87;;;0.80;;
16593;SDS011;8410;52.532;13.336;2024-02-23T09:00:55;0.90;;;0.50;;
16593;SDS011;8410;52.532;13.336;2024-02-23T09:03:23;1.57;;;0.60;;
16593;SDS011;8410;52.532;13.336;2024-02-23T09:05:50;3.00;;;0.73;;
16593;SDS011;8410;52.532;13.336;2024-02-23T09:08:18;1.83;;;0.97;;
16593;SDS011;8410;52.532;13.336;2024-02-23T09:10:47;1.80;;;1.20;;
16593;SDS011;8410;52.532;13.336;2024-02-23T09:13:14;1.53;;;0.90;;
16593;SDS011;8410;52.532;13.336;2024-02-23T09:15:42;3.00;;;1.27;;
16593;SDS011;8410;52.532;13.336;2024-02-23T09:18:10;1.97;;;0.80;;
16593;SDS011;8410;52.532;13.336;2024-02-23T09:20:37;1.77;;;1.13;;
16593;SDS011;8410;52.532;13.336;2024-02-23T09:23:05;1.77;;;1.10;;
16593;SDS011;8410;52.532;13.336;2024-02-23T09:25:32;3.13;;;1.00;;
16593;SDS011;8410;52.532;13.336;2024-02-23T09:28:01;1.47;;;0.70;;
16593;SDS011;8410;52.532;13.336;2024-02-23T09:30:29;1.87;;;1.00;;
16593;SDS011;8410;52.532;13.336;2024-02-23T09:32:56;0.60;;;0.50;;
16593;SDS011;8410;52.532;13.336;2024-02-23T09:35:24;1.27;;;0.70;;
16593;SDS011;8410;52.532;13.336;2024-02-23T09:37:52;3.23;;;1.00;;
16593;SDS011;8410;52.532;13.336;2024-02-23T09:40:19;2.23;;;1.20;;
16593;SDS011;8410;52.532;13.336;2024-02-23T09:42:48;1.17;;;0.70;;
16593;SDS011;8410;52.532;13.336;2024-02-23T09:45:24;1.93;;;0.70;;
16593;SDS011;8410;52.532;13.336;2024-02-23T09:47:52;0.97;;;0.50;;
16593;SDS011;8410;52.532;13.336;2024-02-23T09:50:21;1.10;;;0.67;;
16593;SDS011;8410;52.532;13.336;2024-02-23T09:52:50;3.93;;;1.07;;
16593;SDS011;8410;52.532;13.336;2024-02-23T09:55:18;1.57;;;0.87;;
16593;SDS011;8410;52.532;13.336;2024-02-23T09:57:47;3.97;;;1.30;;
16593;SDS011;8410;52.532;13.336;2024-02-23T10:00:15;2.30;;;0.80;;
16593;SDS011;8410;52.532;13.336;2024-02-23T10:02:45;1.27;;;0.80;;
16593;SDS011;8410;52.532;13.336;2024-02-23T10:05:13;1.30;;;0.70;;
16593;SDS011;8410;52.532;13.336;2024-02-23T10:07:41;0.90;;;0.60;;
16593;SDS011;8410;52.532;13.336;2024-02-23T10:10:09;2.40;;;0.83;;
16593;SDS011;8410;52.532;13.336;2024-02-23T10:12:37;0.90;;;0.60;;
16593;SDS011;8410;52.532;13.336;2024-02-23T10:15:06;3.03;;;0.60;;
16593;SDS011;8410;52.532;13.336;2024-02-23T10:17:34;2.40;;;0.60;;
16593;SDS011;8410;52.532;13.336;2024-02-23T10:20:04;3.23;;;1.23;;
16593;SDS011;8410;52.532;13.336;2024-02-23T10:22:32;2.77;;;1.00;;
16593;SDS011;8410;52.532;13.336;2024-02-23T10:25:01;1.73;;;0.90;;
16593;SDS011;8410;52.532;13.336;2024-02-23T10:27:28;1.07;;;0.77;;
16593;SDS011;8410;52.532;13.336;2024-02-23T10:29:56;1.53;;;0.60;;
16593;SDS011;8410;52.532;13.336;2024-02-23T10:32:23;4.63;;;1.53;;
16593;SDS011;8410;52.532;13.336;2024-02-23T10:34:55;1.03;;;0.73;;
16593;SDS011;8410;52.532;13.336;2024-02-23T10:37:29;0.77;;;0.60;;
16593;SDS011;8410;52.532;13.336;2024-02-23T10:39:57;0.70;;;0.50;;
16593;SDS011;8410;52.532;13.336;2024-02-23T10:42:30;0.50;;;0.50;;
16593;SDS011;8410;52.532;13.336;2024-02-23T10:45:02;0.67;;;0.50;;
16593;SDS011;8410;52.532;13.336;2024-02-23T10:47:31;2.50;;;0.90;;
16593;SDS011;8410;52.532;13.336;2024-02-23T10:50:00;2.40;;;1.00;;
16593;SDS011;8410;52.532;13.336;2024-02-23T10:52:30;1.33;;;0.63;;
16593;SDS011;8410;52.532;13.336;2024-02-23T10:54:59;1.37;;;0.70;;
16593;SDS011;8410;52.532;13.336;2024-02-23T10:57:27;1.63;;;0.80;;
16593;SDS011;8410;52.532;13.336;2024-02-23T10:59:55;3.60;;;1.30;;
16593;SDS011;8410;52.532;13.336;2024-02-23T11:02:22;1.37;;;0.70;;
16593;SDS011;8410;52.532;13.336;2024-02-23T11:04:52;1.80;;;0.67;;
16593;SDS011;8410;52.532;13.336;2024-02-23T11:07:23;2.37;;;1.00;;
16593;SDS011;8410;52.532;13.336;2024-02-23T11:09:53;2.63;;;0.90;;
16593;SDS011;8410;52.532;13.336;2024-02-23T11:12:24;1.97;;;0.80;;
16593;SDS011;8410;52.532;13.336;2024-02-23T11:14:56;1.63;;;1.13;;
16593;SDS011;8410;52.532;13.336;2024-02-23T11:17:26;1.87;;;1.03;;
16593;SDS011;8410;52.532;13.336;2024-02-23T11:19:54;6.83;;;0.83;;
16593;SDS011;8410;52.532;13.336;2024-02-23T11:22:25;0.80;;;0.50;;
16593;SDS011;8410;52.532;13.336;2024-02-23T11:25:05;1.90;;;1.00;;
16593;SDS011;8410;52.532;13.336;2024-02-23T11:27:36;0.83;;;0.60;;
16593;SDS011;8410;52.532;13.336;2024-02-23T11:30:07;3.37;;;1.00;;
16593;SDS011;8410;52.532;13.336;2024-02-23T11:32:37;2.10;;;0.80;;
16593;SDS011;8410;52.532;13.336;2024-02-23T11:35:07;1.50;;;0.93;;
16593;SDS011;8410;52.532;13.336;2024-02-23T11:37:48;2.03;;;0.80;;
16593;SDS011;8410;52.532;13.336;2024-02-23T11:40:24;1.07;;;0.90;;
16593;SDS011;8410;52.532;13.336;2024-02-23T11:42:54;3.23;;;1.00;;
16593;SDS011;8410;52.532;13.336;2024-02-23T11:45:22;2.00;;;1.00;;
16593;SDS011;8410;52.532;13.336;2024-02-23T11:47:50;0.90;;;0.70;;
16593;SDS011;8410;52.532;13.336;2024-02-23T11:50:19;1.67;;;0.80;;
16593;SDS011;8410;52.532;13.336;2024-02-23T11:52:47;1.00;;;0.67;;
16593;SDS011;8410;52.532;13.336;2024-02-23T11:55:17;1.97;;;0.70;;
16593;SDS011;8410;52.532;13.336;2024-02-23T11:57:49;1.93;;;0.77;;
16593;SDS011;8410;52.532;13.336;2024-02-23T12:00:30;1.60;;;0.67;;
16593;SDS011;8410;52.532;13.336;2024-02-23T12:02:58;2.63;;;1.30;;
16593;SDS011;8410;52.532;13.336;2024-02-23T12:05:26;1.33;;;0.90;;
16593;SDS011;8410;52.532;13.336;2024-02-23T12:07:54;3.47;;;1.10;;
16593;SDS011;8410;52.532;13.336;2024-02-23T12:10:22;2.87;;;1.50;;
16593;SDS011;8410;52.532;13.336;2024-02-23T12:12:53;2.37;;;1.40;;
16593;SDS011;8410;52.532;13.336;2024-02-23T12:15:20;1.50;;;1.10;;
16593;SDS011;8410;52.532;13.336;2024-02-23T12:17:48;1.53;;;0.80;;
16593;SDS011;8410;52.532;13.336;2024-02-23T12:20:16;1.30;;;0.90;;
16593;SDS011;8410;52.532;13.336;2024-02-23T12:22:44;1.67;;;0.97;;
16593;SDS011;8410;52.532;13.336;2024-02-23T12:25:12;1.33;;;0.60;;
16593;SDS011;8410;52.532;13.336;2024-02-23T12:27:41;2.30;;;0.63;;
16593;SDS011;8410;52.532;13.336;2024-02-23T12:30:14;1.43;;;1.10;;
16593;SDS011;8410;52.532;13.336;2024-02-23T12:32:42;2.93;;;1.17;;
16593;SDS011;8410;52.532;13.336;2024-02-23T12:35:10;1.00;;;0.70;;
16593;SDS011;8410;52.532;13.336;2024-02-23T12:37:38;2.60;;;0.93;;
16593;SDS011;8410;52.532;13.336;2024-02-23T12:40:10;2.73;;;1.13;;
16593;SDS011;8410;52.532;13.336;2024-02-23T12:42:38;3.23;;;1.40;;
16593;SDS011;8410;52.532;13.336;2024-02-23T12:45:05;1.27;;;1.00;;
16593;SDS011;8410;52.532;13.336;2024-02-23T12:47:34;3.33;;;2.10;;
16593;SDS011;8410;52.532;13.336;2024-02-23T12:50:02;4.27;;;2.93;;
16593;SDS011;8410;52.532;13.336;2024-02-23T12:52:32;2.67;;;1.80;;
16593;SDS011;8410;52.532;13.336;2024-02-23T12:54:59;2.30;;;1.90;;
16593;SDS011;8410;52.532;13.336;2024-02-23T12:57:27;1.57;;;1.13;;
16593;SDS011;8410;52.532;13.336;2024-02-23T12:59:54;2.87;;;1.93;;
16593;SDS011;8410;52.532;13.336;2024-02-23T13:02:22;2.37;;;1.87;;
16593;SDS011;8410;52.532;13.336;2024-02-23T13:04:51;2.47;;;1.53;;
16593;SDS011;8410;52.532;13.336;2024-02-23T13:07:19;2.60;;;0.87;;
16593;SDS011;8410;52.532;13.336;2024-02-23T13:09:46;2.27;;;1.07;;
16593;SDS011;8410;52.532;13.336;2024-02-23T13:12:14;2.40;;;1.10;;
16593;SDS011;8410;52.532;13.336;2024-02-23T13:14:42;1.67;;;1.00;;
16593;SDS011;8410;52.532;13.336;2024-02-23T13:17:09;3.80;;;0.90;;
16593;SDS011;8410;52.532;13.336;2024-02-23T13:19:37;1.57;;;1.23;;
16593;SDS011;8410;52.532;13.336;2024-02-23T13:22:06;3.43;;;1.20;;
16593;SDS011;8410;52.532;13.336;2024-02-23T13:24:33;3.03;;;1.13;;
16593;SDS011;8410;52.532;13.336;2024-02-23T13:27:01;4.57;;;1.23;;
16593;SDS011;8410;52.532;13.336;2024-02-23T13:29:28;5.07;;;1.00;;
16593;SDS011;8410;52.532;13.336;2024-02-23T13:31:56;2.00;;;1.20;;
16593;SDS011;8410;52.532;13.336;2024-02-23T13:34:23;3.43;;;1.00;;
16593;SDS011;8410;52.532;13.336;2024-02-23T13:36:51;3.07;;;1.10;;
16593;SDS011;8410;52.532;13.336;2024-02-23T13:39:20;3.63;;;1.10;;
16593;SDS011;8410;52.532;13.336;2024-02-23T13:41:47;2.53;;;1.10;;
16593;SDS011;8410;52.532;13.336;2024-02-23T13:44:15;6.47;;;1.20;;
16593;SDS011;8410;52.532;13.336;2024-02-23T13:46:42;2.83;;;1.00;;
16593;SDS011;8410;52.532;13.336;2024-02-23T13:49:10;3.33;;;1.20;;
16593;SDS011;8410;52.532;13.336;2024-02-23T13:51:39;2.03;;;1.00;;
16593;SDS011;8410;52.532;13.336;2024-02-23T13:54:06;3.40;;;1.90;;
16593;SDS011;8410;52.532;13.336;2024-02-23T13:56:35;3.60;;;0.97;;
16593;SDS011;8410;52.532;13.336;2024-02-23T13:59:02;1.80;;;0.80;;
16593;SDS011;8410;52.532;13.336;2024-02-23T14:01:30;3.07;;;1.30;;
16593;SDS011;8410;52.532;13.336;2024-02-23T14:03:58;5.13;;;1.10;;
16593;SDS011;8410;52.532;13.336;2024-02-23T14:06:25;2.07;;;1.40;;
16593;SDS011;8410;52.532;13.336;2024-02-23T14:08:53;3.20;;;1.20;;
16593;SDS011;8410;52.532;13.336;2024-02-23T14:11:20;3.27;;;0.80;;
16593;SDS011;8410;52.532;13.336;2024-02-23T14:13:50;1.30;;;0.80;;
16593;SDS011;8410;52.532;13.336;2024-02-23T14:16:17;2.70;;;1.40;;
16593;SDS011;8410;52.532;13.336;2024-02-23T14:18:45;2.40;;;1.00;;
16593;SDS011;8410;52.532;13.336;2024-02-23T14:21:12;1.90;;;0.80;;
16593;SDS011;8410;52.532;13.336;2024-02-23T14:23:41;1.70;;;0.80;;
16593;SDS011;8410;52.532;13.336;2024-02-23T14:26:08;2.10;;;0.80;;
16593;SDS011;8410;52.532;13.336;2024-02-23T14:28:37;3.30;;;0.90;;
16593;SDS011;8410;52.532;13.336;2024-02-23T14:31:05;2.20;;;0.97;;
16593;SDS011;8410;52.532;13.336;2024-02-23T14:33:33;2.70;;;0.90;;
16593;SDS011;8410;52.532;13.336;2024-02-23T14:36:00;3.27;;;0.80;;
16593;SDS011;8410;52.532;13.336;2024-02-23T14:38:28;2.23;;;1.03;;
16593;SDS011;8410;52.532;13.336;2024-02-23T14:40:55;1.63;;;0.90;;
16593;SDS011;8410;52.532;13.336;2024-02-23T14:43:23;3.40;;;1.03;;
16593;SDS011;8410;52.532;13.336;2024-02-23T14:45:51;3.47;;;1.30;;
16593;SDS011;8410;52.532;13.336;2024-02-23T14:48:20;3.67;;;1.20;;
16593;SDS011;8410;52.532;13.336;2024-02-23T14:50:47;2.93;;;1.10;;
16593;SDS011;8410;52.532;13.336;2024-02-23T14:53:15;2.43;;;1.00;;